Time,TemperatureF,DewpointF,PressureIn,WindDirection,WindDirectionDegrees,WindSpeedMPH,WindSpeedGustMPH,Humidity,HourlyPrecipIn,Conditions,Clouds,dailyrainin,SoftwareType,DateUTC
2013-03-06 00:01:00,27.0,20.0,-100.00,NNE,30,5.0,9.0,74,-99.99,,,-99.99,,2013-03-06 07:01:00,
2013-03-06 00:11:00,26.0,19.0,-100.00,NNE,30,3.0,6.0,74,-99.99,,,-99.99,,2013-03-06 07:11:00,
2013-03-06 00:22:00,25.0,18.0,-100.00,NE,55,6.0,7.0,74,-99.99,,,-99.99,,2013-03-06 07:22:00,
2013-03-06 00:31:00,25.0,18.0,-100.00,NE,40,7.0,8.0,75,-99.99,,,-99.99,,2013-03-06 07:31:00,
2013-03-06 00:42:00,26.0,19.0,-100.00,NE,55,7.0,10.0,74,-99.99,,,-99.99,,2013-03-06 07:42:00,
2013-03-06 00:52:00,27.0,19.0,-100.00,NE,55,7.0,12.0,72,-99.99,,,-99.99,,2013-03-06 07:52:00,
2013-03-06 01:01:00,26.0,19.0,-100.00,NE,55,6.0,9.0,71,-99.99,,,-99.99,,2013-03-06 08:01:00,
2013-03-06 01:11:00,26.0,18.0,-100.00,NE,50,5.0,9.0,71,-99.99,,,-99.99,,2013-03-06 08:11:00,
2013-03-06 01:21:00,25.0,17.0,-100.00,NE,40,4.0,7.0,71,-99.99,,,-99.99,,2013-03-06 08:21:00,
2013-03-06 01:31:00,25.0,17.0,-100.00,NE,50,2.0,7.0,71,-99.99,,,-99.99,,2013-03-06 08:31:00,
2013-03-06 01:42:00,24.0,17.0,-100.00,NE,55,4.0,6.0,75,-99.99,,,-99.99,,2013-03-06 08:42:00,
2013-03-06 01:52:00,23.0,17.0,-100.00,ENE,65,4.0,6.0,77,-99.99,,,-99.99,,2013-03-06 08:52:00,
2013-03-06 02:01:00,23.0,17.0,-100.00,ENE,70,3.0,6.0,77,-99.99,,,-99.99,,2013-03-06 09:01:00,
2013-03-06 02:12:00,22.0,17.0,-100.00,East,80,4.0,4.0,77,-99.99,,,-99.99,,2013-03-06 09:12:00,
2013-03-06 02:21:00,23.0,17.0,-100.00,East,80,4.0,4.0,77,-99.99,,,-99.99,,2013-03-06 09:21:00,
2013-03-06 02:31:00,22.0,16.0,-100.00,ENE,70,4.0,4.0,77,-99.99,,,-99.99,,2013-03-06 09:31:00,
2013-03-06 02:42:00,21.0,15.0,-100.00,North,5,1.0,4.0,77,-99.99,,,-99.99,,2013-03-06 09:42:00,
2013-03-06 02:51:00,20.0,14.0,-100.00,NNW,345,1.0,2.0,79,-99.99,,,-99.99,,2013-03-06 09:51:00,
2013-03-06 03:01:00,15.0,10.0,-100.00,NNE,20,2.0,4.0,80,-99.99,,,-99.99,,2013-03-06 10:01:00,
2013-03-06 03:11:00,17.0,12.0,-100.00,NE,40,2.0,4.0,81,-99.99,,,-99.99,,2013-03-06 10:11:00,
2013-03-06 03:21:00,15.0,10.0,-100.00,NW,325,1.0,3.0,81,-99.99,,,-99.99,,2013-03-06 10:21:00,
2013-03-06 03:32:00,16.0,11.0,-100.00,NW,325,4.0,4.0,81,-99.99,,,-99.99,,2013-03-06 10:32:00,
2013-03-06 03:42:00,15.0,10.0,-100.00,NNW,330,4.0,4.0,82,-99.99,,,-99.99,,2013-03-06 10:42:00,
2013-03-06 03:51:00,13.0,9.0,-100.00,NNW,345,3.0,4.0,83,-99.99,,,-99.99,,2013-03-06 10:51:00,
2013-03-06 04:02:00,15.0,11.0,-100.00,NNW,345,2.0,4.0,83,-99.99,,,-99.99,,2013-03-06 11:02:00,
2013-03-06 04:11:00,15.0,11.0,-100.00,North,350,3.0,4.0,83,-99.99,,,-99.99,,2013-03-06 11:11:00,
2013-03-06 04:22:00,15.0,11.0,-100.00,North,5,2.0,2.0,84,-99.99,,,-99.99,,2013-03-06 11:22:00,
2013-03-06 04:32:00,16.0,12.0,-100.00,ENE,60,2.0,4.0,84,-99.99,,,-99.99,,2013-03-06 11:32:00,
2013-03-06 04:42:00,16.0,12.0,-100.00,ESE,105,4.0,4.0,85,-99.99,,,-99.99,,2013-03-06 11:42:00,
2013-03-06 04:52:00,16.0,13.0,-100.00,East,100,5.0,6.0,85,-99.99,,,-99.99,,2013-03-06 11:52:00,
2013-03-06 05:02:00,17.0,13.0,-100.00,SE,125,4.0,6.0,85,-99.99,,,-99.99,,2013-03-06 12:02:00,
2013-03-06 05:11:00,17.0,13.0,-100.00,ESE,105,3.0,4.0,85,-99.99,,,-99.99,,2013-03-06 12:11:00,
2013-03-06 05:21:00,16.0,13.0,-100.00,SE,135,2.0,4.0,85,-99.99,,,-99.99,,2013-03-06 12:21:00,
2013-03-06 05:32:00,16.0,13.0,-100.00,ESE,120,4.0,5.0,85,-99.99,,,-99.99,,2013-03-06 12:32:00,
2013-03-06 05:42:00,15.0,12.0,-100.00,South,175,4.0,6.0,85,-99.99,,,-99.99,,2013-03-06 12:42:00,
2013-03-06 05:52:00,15.0,12.0,-100.00,SE,140,4.0,4.0,85,-99.99,,,-99.99,,2013-03-06 12:52:00,
2013-03-06 06:02:00,15.0,12.0,-100.00,SSE,150,6.0,7.0,87,-99.99,,,-99.99,,2013-03-06 13:02:00,
2013-03-06 06:11:00,16.0,13.0,-100.00,South,175,5.0,6.0,87,-99.99,,,-99.99,,2013-03-06 13:11:00,
2013-03-06 06:22:00,15.0,12.0,-100.00,South,185,4.0,7.0,87,-99.99,,,-99.99,,2013-03-06 13:22:00,
2013-03-06 06:32:00,15.0,13.0,-100.00,South,180,6.0,7.0,87,-99.99,,,-99.99,,2013-03-06 13:32:00,
2013-03-06 06:42:00,16.0,13.0,-100.00,SSE,165,4.0,7.0,87,-99.99,,,-99.99,,2013-03-06 13:42:00,
2013-03-06 06:52:00,16.0,13.0,-100.00,SSE,165,4.0,7.0,87,-99.99,,,-99.99,,2013-03-06 13:52:00,
2013-03-06 07:01:00,17.0,14.0,-100.00,South,185,4.0,6.0,88,-99.99,,,-99.99,,2013-03-06 14:01:00,
2013-03-06 07:11:00,15.0,12.0,-100.00,SSE,165,1.0,3.0,88,-99.99,,,-99.99,,2013-03-06 14:11:00,
2013-03-06 07:21:00,22.0,19.0,-100.00,SSE,150,1.0,2.0,88,-99.99,,,-99.99,,2013-03-06 14:21:00,
2013-03-06 07:32:00,22.0,19.0,-100.00,SSE,160,0.0,2.0,88,-99.99,,,-99.99,,2013-03-06 14:32:00,
2013-03-06 07:42:00,23.0,20.0,-100.00,West,260,0.0,3.0,87,-99.99,,,-99.99,,2013-03-06 14:42:00,
2013-03-06 07:52:00,24.0,21.0,-100.00,SW,225,2.0,5.0,86,-99.99,,,-99.99,,2013-03-06 14:52:00,
2013-03-06 08:02:00,26.0,22.0,-100.00,SSW,195,3.0,4.0,85,-99.99,,,-99.99,,2013-03-06 15:02:00,
2013-03-06 08:11:00,28.0,23.0,-100.00,SSW,195,3.0,6.0,82,-99.99,,,-99.99,,2013-03-06 15:11:00,
2013-03-06 08:21:00,28.0,22.0,-100.00,SSW,195,4.0,6.0,79,-99.99,,,-99.99,,2013-03-06 15:21:00,
2013-03-06 08:32:00,28.0,22.0,-100.00,SSE,160,4.0,6.0,76,-99.99,,,-99.99,,2013-03-06 15:32:00,
2013-03-06 08:42:00,29.0,21.0,-100.00,SSE,160,3.0,4.0,70,-99.99,,,-99.99,,2013-03-06 15:42:00,
2013-03-06 08:52:00,30.0,22.0,-100.00,South,180,4.0,6.0,72,-99.99,,,-99.99,,2013-03-06 15:52:00,
2013-03-06 09:01:00,26.0,17.0,-100.00,South,185,2.0,6.0,69,-99.99,,,-99.99,,2013-03-06 16:01:00,
2013-03-06 09:11:00,30.0,22.0,-100.00,SSE,160,1.0,5.0,71,-99.99,,,-99.99,,2013-03-06 16:11:00,
2013-03-06 09:21:00,33.0,23.0,-100.00,ESE,115,1.0,4.0,66,-99.99,,,-99.99,,2013-03-06 16:21:00,
2013-03-06 09:32:00,35.0,24.0,-100.00,SE,130,1.0,3.0,63,-99.99,,,-99.99,,2013-03-06 16:32:00,
2013-03-06 09:42:00,36.0,22.0,-100.00,SSE,150,0.0,3.0,56,-99.99,,,-99.99,,2013-03-06 16:42:00,
2013-03-06 09:52:00,36.0,22.0,-100.00,SSE,150,0.0,3.0,56,-99.99,,,-99.99,,2013-03-06 16:52:00,
2013-03-06 10:01:00,37.0,22.0,-100.00,SE,140,2.0,5.0,53,-99.99,,,-99.99,,2013-03-06 17:01:00,
2013-03-06 10:11:00,38.0,22.0,-100.00,East,100,3.0,5.0,51,-99.99,,,-99.99,,2013-03-06 17:11:00,
2013-03-06 10:21:00,38.0,21.0,-100.00,ENE,70,3.0,6.0,51,-99.99,,,-99.99,,2013-03-06 17:21:00,
2013-03-06 10:32:00,37.0,20.0,-100.00,East,85,6.0,8.0,50,-99.99,,,-99.99,,2013-03-06 17:32:00,
2013-03-06 10:42:00,38.0,21.0,-100.00,East,80,6.0,9.0,50,-99.99,,,-99.99,,2013-03-06 17:42:00,
2013-03-06 10:52:00,39.0,21.0,-100.00,East,100,6.0,9.0,48,-99.99,,,-99.99,,2013-03-06 17:52:00,
2013-03-06 11:02:00,39.0,21.0,-100.00,SE,125,6.0,7.0,46,-99.99,,,-99.99,,2013-03-06 18:02:00,
2013-03-06 11:28:00,42.0,23.0,-100.00,SE,145,3.0,7.0,46,-99.99,,,-99.99,,2013-03-06 18:28:00,
2013-03-06 11:42:00,44.0,22.0,-100.00,SSE,150,3.0,6.0,41,-99.99,,,-99.99,,2013-03-06 18:42:00,
2013-03-06 11:52:00,46.0,23.0,-100.00,SE,140,1.0,4.0,39,-99.99,,,-99.99,,2013-03-06 18:52:00,
2013-03-06 12:02:00,47.0,22.0,-100.00,WNW,300,0.0,4.0,37,-99.99,,,-99.99,,2013-03-06 19:02:00,
2013-03-06 12:11:00,47.0,22.0,-100.00,North,0,1.0,5.0,36,-99.99,,,-99.99,,2013-03-06 19:11:00,
2013-03-06 12:21:00,48.0,22.0,-100.00,NNE,20,2.0,4.0,34,-99.99,,,-99.99,,2013-03-06 19:21:00,
2013-03-06 12:32:00,48.0,22.0,-100.00,NNE,30,5.0,7.0,34,-99.99,,,-99.99,,2013-03-06 19:32:00,
2013-03-06 12:43:00,49.0,22.0,-100.00,ENE,75,3.0,6.0,34,-99.99,,,-99.99,,2013-03-06 19:43:00,
2013-03-06 12:52:00,49.0,22.0,-100.00,NNE,25,6.0,9.0,34,-99.99,,,-99.99,,2013-03-06 19:52:00,
2013-03-06 13:02:00,50.0,22.0,-100.00,North,5,6.0,9.0,33,-99.99,,,-99.99,,2013-03-06 20:02:00,
2013-03-06 13:12:00,51.0,21.0,-100.00,NE,50,6.0,9.0,30,-99.99,,,-99.99,,2013-03-06 20:12:00,
2013-03-06 13:22:00,52.0,22.0,-100.00,NE,45,5.0,7.0,30,-99.99,,,-99.99,,2013-03-06 20:22:00,
2013-03-06 13:32:00,53.0,22.0,-100.00,North,0,6.0,11.0,29,-99.99,,,-99.99,,2013-03-06 20:32:00,
2013-03-06 13:42:00,53.0,21.0,-100.00,NE,35,9.0,13.0,28,-99.99,,,-99.99,,2013-03-06 20:42:00,
2013-03-06 13:52:00,53.0,21.0,-100.00,NE,40,6.0,12.0,27,-99.99,,,-99.99,,2013-03-06 20:52:00,
2013-03-06 14:02:00,53.0,23.0,-100.00,NNE,25,11.0,16.0,31,-99.99,,,-99.99,,2013-03-06 21:02:00,
2013-03-06 14:11:00,53.0,23.0,-100.00,NNE,20,9.0,17.0,30,-99.99,,,-99.99,,2013-03-06 21:11:00,
2013-03-06 14:22:00,53.0,22.0,-100.00,NNE,20,10.0,15.0,29,-99.99,,,-99.99,,2013-03-06 21:22:00,
2013-03-06 14:32:00,54.0,22.0,-100.00,NNE,30,12.0,15.0,28,-99.99,,,-99.99,,2013-03-06 21:32:00,
2013-03-06 14:42:00,54.0,22.0,-100.00,North,10,7.0,13.0,28,-99.99,,,-99.99,,2013-03-06 21:42:00,
2013-03-06 14:51:00,54.0,23.0,-100.00,NE,45,11.0,15.0,29,-99.99,,,-99.99,,2013-03-06 21:51:00,
2013-03-06 15:01:00,54.0,23.0,-100.00,NNE,30,11.0,15.0,29,-99.99,,,-99.99,,2013-03-06 22:01:00,
2013-03-06 15:11:00,54.0,22.0,-100.00,NE,40,10.0,16.0,28,-99.99,,,-99.99,,2013-03-06 22:11:00,
2013-03-06 15:21:00,55.0,21.0,-100.00,NE,50,10.0,15.0,26,-99.99,,,-99.99,,2013-03-06 22:21:00,
2013-03-06 15:32:00,55.0,21.0,-100.00,NE,50,9.0,16.0,26,-99.99,,,-99.99,,2013-03-06 22:32:00,
2013-03-06 15:42:00,55.0,20.0,-100.00,NE,45,12.0,17.0,25,-99.99,,,-99.99,,2013-03-06 22:42:00,
2013-03-06 15:51:00,55.0,22.0,-100.00,NE,40,12.0,16.0,26,-99.99,,,-99.99,,2013-03-06 22:51:00,
2013-03-06 16:01:00,55.0,22.0,-100.00,NE,35,12.0,16.0,27,-99.99,,,-99.99,,2013-03-06 23:01:00,
2013-03-06 16:11:00,55.0,23.0,-100.00,NE,50,9.0,17.0,27,-99.99,,,-99.99,,2013-03-06 23:11:00,
2013-03-06 16:21:00,55.0,22.0,-100.00,NE,40,12.0,17.0,27,-99.99,,,-99.99,,2013-03-06 23:21:00,
2013-03-06 16:32:00,54.0,23.0,-100.00,NE,40,9.0,14.0,29,-99.99,,,-99.99,,2013-03-06 23:32:00,
2013-03-06 16:42:00,54.0,23.0,-100.00,NNE,30,9.0,14.0,29,-99.99,,,-99.99,,2013-03-06 23:42:00,
2013-03-06 16:52:00,54.0,24.0,-100.00,NNE,25,7.0,13.0,30,-99.99,,,-99.99,,2013-03-06 23:52:00,
2013-03-06 17:01:00,54.0,24.0,-100.00,NE,35,9.0,12.0,30,-99.99,,,-99.99,,2013-03-07 00:01:00,
2013-03-06 17:11:00,55.0,24.0,-100.00,NE,35,10.0,15.0,29,-99.99,,,-99.99,,2013-03-07 00:11:00,
2013-03-06 17:21:00,56.0,23.0,-100.00,NE,35,11.0,16.0,27,-99.99,,,-99.99,,2013-03-07 00:21:00,
2013-03-06 17:32:00,56.0,22.0,-100.00,NNE,30,7.0,15.0,26,-99.99,,,-99.99,,2013-03-07 00:32:00,
2013-03-06 17:42:00,55.0,22.0,-100.00,NNE,25,10.0,12.0,27,-99.99,,,-99.99,,2013-03-07 00:42:00,
2013-03-06 17:51:00,54.0,22.0,-100.00,NNE,25,9.0,15.0,28,-99.99,,,-99.99,,2013-03-07 00:51:00,
2013-03-06 18:01:00,53.0,22.0,-100.00,NNE,25,9.0,12.0,30,-99.99,,,-99.99,,2013-03-07 01:01:00,
2013-03-06 18:11:00,51.0,22.0,-100.00,NNE,30,9.0,12.0,31,-99.99,,,-99.99,,2013-03-07 01:11:00,
2013-03-06 18:21:00,50.0,22.0,-100.00,NNE,25,9.0,12.0,32,-99.99,,,-99.99,,2013-03-07 01:21:00,
2013-03-06 18:31:00,49.0,22.0,-100.00,NNE,25,10.0,12.0,33,-99.99,,,-99.99,,2013-03-07 01:31:00,
2013-03-06 18:42:00,47.0,22.0,-100.00,NNE,20,9.0,12.0,36,-99.99,,,-99.99,,2013-03-07 01:42:00,
2013-03-06 18:51:00,47.0,21.0,-100.00,NNE,30,8.0,12.0,35,-99.99,,,-99.99,,2013-03-07 01:51:00,
2013-03-06 19:01:00,46.0,21.0,-100.00,NNE,30,9.0,12.0,36,-99.99,,,-99.99,,2013-03-07 02:01:00,
2013-03-06 19:11:00,45.0,22.0,-100.00,NE,35,7.0,11.0,38,-99.99,,,-99.99,,2013-03-07 02:11:00,
2013-03-06 19:21:00,43.0,20.0,-100.00,NNE,15,4.0,9.0,39,-99.99,,,-99.99,,2013-03-07 02:21:00,
2013-03-06 19:32:00,42.0,20.0,-100.00,WNW,285,1.0,6.0,41,-99.99,,,-99.99,,2013-03-07 02:32:00,
2013-03-06 19:41:00,42.0,20.0,-100.00,WNW,285,1.0,6.0,41,-99.99,,,-99.99,,2013-03-07 02:41:00,
2013-03-06 19:51:00,42.0,20.0,-100.00,WNW,285,1.0,6.0,41,-99.99,,,-99.99,,2013-03-07 02:51:00,
2013-03-06 20:02:00,40.0,23.0,-100.00,NE,45,4.0,6.0,49,-99.99,,,-99.99,,2013-03-07 03:02:00,
2013-03-06 20:11:00,40.0,23.0,-100.00,NE,35,2.0,6.0,51,-99.99,,,-99.99,,2013-03-07 03:11:00,
2013-03-06 20:21:00,38.0,23.0,-100.00,North,0,6.0,7.0,52,-99.99,,,-99.99,,2013-03-07 03:21:00,
2013-03-06 20:32:00,38.0,24.0,-100.00,North,10,6.0,10.0,57,-99.99,,,-99.99,,2013-03-07 03:32:00,
2013-03-06 20:42:00,38.0,24.0,-100.00,North,5,7.0,12.0,57,-99.99,,,-99.99,,2013-03-07 03:42:00,
2013-03-06 20:52:00,36.0,24.0,-100.00,NW,310,4.0,7.0,60,-99.99,,,-99.99,,2013-03-07 03:52:00,
2013-03-06 21:01:00,35.0,24.0,-100.00,NW,305,8.0,9.0,64,-99.99,,,-99.99,,2013-03-07 04:01:00,
2013-03-06 21:11:00,35.0,24.0,-100.00,North,350,6.0,9.0,65,-99.99,,,-99.99,,2013-03-07 04:11:00,
2013-03-06 21:21:00,34.0,24.0,-100.00,WNW,295,7.0,9.0,66,-99.99,,,-99.99,,2013-03-07 04:21:00,
2013-03-06 21:32:00,34.0,24.0,-100.00,North,5,7.0,9.0,66,-99.99,,,-99.99,,2013-03-07 04:32:00,
2013-03-06 21:42:00,37.0,25.0,-100.00,NNE,20,4.0,8.0,61,-99.99,,,-99.99,,2013-03-07 04:42:00,
2013-03-06 21:51:00,35.0,24.0,-100.00,ENE,70,1.0,2.0,62,-99.99,,,-99.99,,2013-03-07 04:51:00,
2013-03-06 22:02:00,36.0,25.0,-100.00,NW,315,1.0,3.0,63,-99.99,,,-99.99,,2013-03-07 05:02:00,
2013-03-06 22:12:00,34.0,24.0,-100.00,West,280,1.0,6.0,65,-99.99,,,-99.99,,2013-03-07 05:12:00,
2013-03-06 22:22:00,34.0,24.0,-100.00,NW,320,0.0,3.0,66,-99.99,,,-99.99,,2013-03-07 05:22:00,
2013-03-06 22:32:00,33.0,23.0,-100.00,WNW,290,2.0,3.0,68,-99.99,,,-99.99,,2013-03-07 05:32:00,
2013-03-06 22:42:00,30.0,21.0,-100.00,NW,320,4.0,6.0,69,-99.99,,,-99.99,,2013-03-07 05:42:00,
2013-03-06 22:52:00,31.0,23.0,-100.00,NE,40,1.0,3.0,71,-99.99,,,-99.99,,2013-03-07 05:52:00,
2013-03-06 23:01:00,30.0,22.0,-100.00,ESE,110,1.0,3.0,72,-99.99,,,-99.99,,2013-03-07 06:01:00,
2013-03-06 23:11:00,30.0,23.0,-100.00,SE,125,4.0,6.0,74,-99.99,,,-99.99,,2013-03-07 06:11:00,
2013-03-06 23:21:00,29.0,22.0,-100.00,ESE,115,9.0,10.0,77,-99.99,,,-99.99,,2013-03-07 06:21:00,
2013-03-06 23:32:00,29.0,24.0,-100.00,SE,135,9.0,12.0,80,-99.99,,,-99.99,,2013-03-07 06:32:00,
2013-03-06 23:42:00,30.0,25.0,-100.00,SE,145,11.0,13.0,82,-99.99,,,-99.99,,2013-03-07 06:42:00,
2013-03-06 23:51:00,30.0,25.0,-100.00,SE,130,9.0,11.0,82,-99.99,,,-99.99,,2013-03-07 06:51:00,